Time;durP1;ratioP1;P1;durP2;ratioP2;P2;SDS_P1;SDS_P2;PMS_P1;PMS_P2;Temp;Humidity;BMP_temperature;BMP_pressure;BME280_temperature;BME280_humidity;BME280_pressure;Samples;Min_cycle;Max_cycle;Signal;HPM_P1;HPM_P2
2023/10/09 00:01:17;;;;;;;;;;;14.70;98.40;;;;;;5091225;28;19922;-71
2023/10/09 00:03:44;;;;;;;;;;;14.70;98.40;;;;;;5117606;27;20414;-71
2023/10/09 00:06:13;;;;;;;;;;;14.70;98.40;;;;;;5099553;28;20021;-71
2023/10/09 00:08:39;;;;;;;;;;;14.70;98.40;;;;;;5090210;28;19909;-71
2023/10/09 00:11:17;;;;;;;;;;;14.70;98.40;;;;;;5090883;28;19912;-71
2023/10/09 00:13:49;;;;;;;;;;;14.70;98.40;;;;;;5091297;28;20514;-71
2023/10/09 00:16:23;;;;;;;;;;;14.70;98.40;;;;;;5091481;28;20006;-71
2023/10/09 00:18:49;;;;;;;;;;;14.70;98.40;;;;;;5096903;28;19943;-71
2023/10/09 00:21:20;;;;;;;;;;;14.70;98.40;;;;;;5089498;28;19939;-71
2023/10/09 00:23:52;;;;;;;;;;;14.70;98.60;;;;;;5090880;28;19912;-71
2023/10/09 00:26:19;;;;;;;;;;;14.70;98.60;;;;;;5085623;28;19963;-71
2023/10/09 00:28:47;;;;;;;;;;;14.70;98.50;;;;;;5091022;28;19994;-72
2023/10/09 00:31:15;;;;;;;;;;;14.70;98.70;;;;;;5098792;28;20131;-71
2023/10/09 00:33:42;;;;;;;;;;;14.70;98.50;;;;;;5090749;28;19920;-71
2023/10/09 00:36:11;;;;;;;;;;;14.80;98.60;;;;;;5090336;28;20015;-71
2023/10/09 00:38:39;;;;;;;;;;;14.70;98.50;;;;;;5089177;28;20388;-71
2023/10/09 00:43:35;;;;;;;;;;;14.70;98.40;;;;;;5090697;28;19912;-71
2023/10/09 00:46:11;;;;;;;;;;;14.80;98.50;;;;;;5097128;28;19989;-71
2023/10/09 00:48:40;;;;;;;;;;;14.80;98.80;;;;;;5096473;28;19999;-71
2023/10/09 00:51:15;;;;;;;;;;;14.80;98.50;;;;;;5090253;28;19931;-71
2023/10/09 00:53:42;;;;;;;;;;;14.80;98.40;;;;;;5089271;28;20607;-71
2023/10/09 00:58:56;;;;;;;;;;;14.90;98.40;;;;;;5097178;28;19912;-71
2023/10/09 01:01:27;;;;;;;;;;;14.80;98.50;;;;;;5090882;28;19916;-71
2023/10/09 01:03:52;;;;;;;;;;;14.90;98.50;;;;;;5089884;28;20437;-71
2023/10/09 01:06:21;;;;;;;;;;;14.80;98.30;;;;;;5089560;28;19999;-71
2023/10/09 01:09:29;;;;;;;;;;;14.80;98.40;;;;;;5090030;28;20355;-71
2023/10/09 01:11:47;;;;;;;;;;;14.90;98.40;;;;;;5092043;28;19916;-71
2023/10/09 01:14:12;;;;;;;;;;;14.90;98.60;;;;;;5083623;28;19961;-71
2023/10/09 01:16:40;;;;;;;;;;;14.90;98.60;;;;;;5102106;28;19920;-71
2023/10/09 01:19:12;;;;;;;;;;;14.90;98.60;;;;;;5091280;28;20040;-71
2023/10/09 01:21:39;;;;;;;;;;;14.90;98.50;;;;;;5096967;28;19919;-71
2023/10/09 01:24:08;;;;;;;;;;;14.90;98.40;;;;;;5089316;28;19964;-71
2023/10/09 01:26:46;;;;;;;;;;;15.00;98.40;;;;;;5091544;28;19924;-71
2023/10/09 01:29:19;;;;;;;;;;;15.00;98.60;;;;;;5089014;28;19912;-71
2023/10/09 01:34:18;;;;;;;;;;;15.00;98.30;;;;;;5089474;28;19983;-71
2023/10/09 01:36:46;;;;;;;;;;;15.00;98.30;;;;;;5089175;28;19955;-71
2023/10/09 01:39:27;;;;;;;;;;;15.00;98.40;;;;;;5089288;28;19977;-71
2023/10/09 01:41:58;;;;;;;;;;;15.00;98.30;;;;;;5089339;28;20423;-71
2023/10/09 01:44:34;;;;;;;;;;;15.00;98.40;;;;;;5088811;28;19961;-71
2023/10/09 01:47:07;;;;;;;;;;;15.00;98.40;;;;;;5096309;28;19919;-71
2023/10/09 01:49:37;;;;;;;;;;;15.00;98.40;;;;;;5101404;28;19919;-70
2023/10/09 01:52:08;;;;;;;;;;;15.00;98.40;;;;;;5093465;28;20361;-70
2023/10/09 01:54:37;;;;;;;;;;;15.00;98.30;;;;;;5081404;28;19950;-70
2023/10/09 01:57:12;;;;;;;;;;;15.00;98.70;;;;;;5113712;27;19916;-70
2023/10/09 01:59:38;;;;;;;;;;;15.00;98.50;;;;;;5082062;28;19970;-70
2023/10/09 02:02:13;;;;;;;;;;;15.00;98.20;;;;;;5105729;28;19912;-70
2023/10/09 02:04:42;;;;;;;;;;;15.00;98.30;;;;;;5096040;28;19912;-71
2023/10/09 02:07:08;;;;;;;;;;;15.00;98.30;;;;;;5087325;28;20463;-71
2023/10/09 02:09:34;;;;;;;;;;;15.00;98.30;;;;;;5087545;28;19912;-71
2023/10/09 02:12:00;;;;;;;;;;;15.00;98.30;;;;;;5105440;27;20560;-71
2023/10/09 02:14:26;;;;;;;;;;;15.00;98.40;;;;;;5087760;28;19930;-71
2023/10/09 02:19:38;;;;;;;;;;;15.00;98.40;;;;;;5085724;28;20291;-71
2023/10/09 02:22:13;;;;;;;;;;;15.10;98.40;;;;;;5101206;28;20380;-71
2023/10/09 02:27:39;;;;;;;;;;;15.10;98.40;;;;;;5096777;28;19922;-71
2023/10/09 02:29:59;;;;;;;;;;;15.00;98.50;;;;;;5088898;28;19961;-71
2023/10/09 02:32:26;;;;;;;;;;;15.00;98.40;;;;;;5089593;28;22090;-71
2023/10/09 02:34:53;;;;;;;;;;;15.10;98.40;;;;;;5092737;28;20070;-71
2023/10/09 02:37:23;;;;;;;;;;;15.10;98.50;;;;;;5092890;28;19912;-71
2023/10/09 02:39:52;;;;;;;;;;;15.10;98.50;;;;;;5092973;28;19939;-71
2023/10/09 02:42:23;;;;;;;;;;;15.10;98.50;;;;;;5091262;28;20402;-71
2023/10/09 02:44:52;;;;;;;;;;;15.00;98.40;;;;;;5105715;28;19907;-71
2023/10/09 02:47:25;;;;;;;;;;;15.00;98.20;;;;;;5096071;28;20424;-71
2023/10/09 02:49:51;;;;;;;;;;;15.00;98.20;;;;;;5098565;28;19983;-71
2023/10/09 02:52:18;;;;;;;;;;;15.10;98.30;;;;;;5093718;28;20325;-71
2023/10/09 02:54:47;;;;;;;;;;;15.00;98.20;;;;;;5107242;28;19908;-70
2023/10/09 02:57:21;;;;;;;;;;;15.10;98.40;;;;;;5093077;28;19923;-70
2023/10/09 02:59:47;;;;;;;;;;;15.10;98.40;;;;;;5098650;28;19987;-70
2023/10/09 03:02:13;;;;;;;;;;;15.10;98.40;;;;;;5092131;28;20019;-70
2023/10/09 03:04:41;;;;;;;;;;;15.10;98.40;;;;;;5096559;28;20416;-70
2023/10/09 03:07:07;;;;;;;;;;;15.10;98.40;;;;;;5110978;28;19912;-70
2023/10/09 03:09:34;;;;;;;;;;;15.10;98.30;;;;;;5091852;28;19915;-70
2023/10/09 03:12:02;;;;;;;;;;;15.10;98.40;;;;;;5098961;28;19915;-70
2023/10/09 03:14:29;;;;;;;;;;;15.10;98.30;;;;;;5098987;28;19916;-70
2023/10/09 03:16:58;;;;;;;;;;;15.10;98.40;;;;;;5103537;28;19912;-70
2023/10/09 03:19:28;;;;;;;;;;;15.10;98.40;;;;;;5092636;28;19909;-70
2023/10/09 03:21:53;;;;;;;;;;;15.10;98.40;;;;;;5106856;28;19974;-70
2023/10/09 03:24:22;;;;;;;;;;;15.20;98.40;;;;;;5103034;28;19958;-70
2023/10/09 03:26:49;;;;;;;;;;;15.20;98.40;;;;;;5097343;28;19940;-70
2023/10/09 03:29:14;;;;;;;;;;;15.10;98.30;;;;;;5099733;28;20022;-70
2023/10/09 03:31:42;;;;;;;;;;;15.10;98.30;;;;;;5091335;28;20007;-70
2023/10/09 03:34:10;;;;;;;;;;;15.20;98.50;;;;;;5099644;28;19912;-70
2023/10/09 03:36:38;;;;;;;;;;;15.20;98.40;;;;;;5091700;28;19912;-70
2023/10/09 03:39:18;;;;;;;;;;;15.20;98.40;;;;;;5097714;28;20425;-71
2023/10/09 03:41:46;;;;;;;;;;;15.20;98.50;;;;;;5082834;28;19908;-71
2023/10/09 03:44:13;;;;;;;;;;;15.20;98.50;;;;;;5098590;28;19923;-71
2023/10/09 03:46:39;;;;;;;;;;;15.20;98.40;;;;;;5103426;28;19947;-71
2023/10/09 03:49:10;;;;;;;;;;;15.20;98.30;;;;;;5095352;28;20403;-71
2023/10/09 03:51:37;;;;;;;;;;;15.20;98.40;;;;;;5082166;28;19916;-71
2023/10/09 03:54:06;;;;;;;;;;;15.20;98.40;;;;;;5089707;28;19961;-71
2023/10/09 03:56:32;;;;;;;;;;;15.20;98.40;;;;;;5094869;28;19977;-71
2023/10/09 03:58:58;;;;;;;;;;;15.20;98.30;;;;;;5094723;28;19908;-71
2023/10/09 04:01:29;;;;;;;;;;;15.20;98.20;;;;;;5090938;28;19915;-71
2023/10/09 04:03:55;;;;;;;;;;;15.20;98.30;;;;;;5099375;28;20435;-71
2023/10/09 04:06:21;;;;;;;;;;;15.20;98.30;;;;;;5092494;28;20008;-71
2023/10/09 04:08:49;;;;;;;;;;;15.20;98.30;;;;;;5105941;28;19999;-70
2023/10/09 04:11:17;;;;;;;;;;;15.20;98.30;;;;;;5090719;28;19920;-70
2023/10/09 04:13:45;;;;;;;;;;;15.30;98.40;;;;;;5104505;28;20031;-70
2023/10/09 04:16:33;;;;;;;;;;;15.20;98.30;;;;;;5094110;28;20265;-70
2023/10/09 04:18:57;;;;;;;;;;;15.20;98.40;;;;;;5111106;28;19991;-70
2023/10/09 04:21:36;;;;;;;;;;;15.20;98.30;;;;;;5100191;28;19912;-70
2023/10/09 04:26:44;;;;;;;;;;;15.20;98.30;;;;;;5085250;28;19927;-71
2023/10/09 04:29:26;;;;;;;;;;;15.20;98.40;;;;;;5098736;28;19965;-70
2023/10/09 04:32:00;;;;;;;;;;;15.30;98.50;;;;;;5098880;28;19970;-70
2023/10/09 04:34:34;;;;;;;;;;;15.20;98.40;;;;;;5114580;27;19912;-70
2023/10/09 04:37:00;;;;;;;;;;;15.20;98.40;;;;;;5096644;28;19912;-70
2023/10/09 04:47:37;;;;;;;;;;;15.30;98.40;;;;;;5097804;28;20641;-71
2023/10/09 04:50:11;;;;;;;;;;;15.30;98.40;;;;;;5097938;28;20384;-71
2023/10/09 04:57:45;;;;;;;;;;;15.30;98.50;;;;;;5088214;28;20234;-71
2023/10/09 05:03:04;;;;;;;;;;;15.30;98.40;;;;;;5089654;28;19915;-71
2023/10/09 05:08:19;;;;;;;;;;;15.30;98.50;;;;;;5098423;28;20288;-71
2023/10/09 05:16:22;;;;;;;;;;;15.30;98.40;;;;;;5088878;28;20407;-71
2023/10/09 05:19:05;;;;;;;;;;;15.30;98.50;;;;;;5088096;28;20053;-70
2023/10/09 05:29:34;;;;;;;;;;;15.30;98.50;;;;;;5089754;28;19919;-70
2023/10/09 05:32:08;;;;;;;;;;;15.30;98.40;;;;;;5092551;28;20034;-70
2023/10/09 05:34:36;;;;;;;;;;;15.30;98.30;;;;;;5084565;28;19908;-70
2023/10/09 05:37:17;;;;;;;;;;;15.30;98.30;;;;;;5093917;28;20006;-70
2023/10/09 05:40:08;;;;;;;;;;;15.30;98.30;;;;;;5088467;28;19909;-70
2023/10/09 05:47:57;;;;;;;;;;;15.30;98.40;;;;;;5095102;28;20063;-70
2023/10/09 06:08:26;;;;;;;;;;;15.30;98.30;;;;;;5097391;28;19908;-70
2023/10/09 06:11:06;;;;;;;;;;;15.30;98.40;;;;;;5094949;28;19908;-71
2023/10/09 06:13:37;;;;;;;;;;;15.30;98.40;;;;;;5087855;28;20326;-71
2023/10/09 06:16:19;;;;;;;;;;;15.40;98.40;;;;;;5095145;28;19923;-70
2023/10/09 06:18:45;;;;;;;;;;;15.30;98.30;;;;;;5082215;28;20376;-70
2023/10/09 06:21:39;;;;;;;;;;;15.40;98.40;;;;;;5089089;28;19916;-70
2023/10/09 06:24:09;;;;;;;;;;;15.40;98.30;;;;;;5088553;28;19912;-71
2023/10/09 06:26:35;;;;;;;;;;;15.40;98.40;;;;;;5082608;28;20280;-71
2023/10/09 06:29:17;;;;;;;;;;;15.40;98.30;;;;;;5088376;28;19912;-71
2023/10/09 06:31:58;;;;;;;;;;;15.40;98.30;;;;;;5081684;28;19912;-71
2023/10/09 06:34:32;;;;;;;;;;;15.40;98.30;;;;;;5087503;28;19935;-71
2023/10/09 06:37:03;;;;;;;;;;;15.40;98.40;;;;;;5087666;28;19978;-71
2023/10/09 06:45:04;;;;;;;;;;;15.40;98.60;;;;;;5082982;28;20312;-71
2023/10/09 06:47:36;;;;;;;;;;;15.40;98.40;;;;;;5096353;28;19916;-71
2023/10/09 06:50:56;;;;;;;;;;;15.40;98.30;;;;;;5087949;28;19930;-71
2023/10/09 06:52:57;;;;;;;;;;;15.40;98.30;;;;;;5101199;28;19919;-71
2023/10/09 06:55:33;;;;;;;;;;;15.50;98.30;;;;;;5087329;28;19912;-71
2023/10/09 06:58:09;;;;;;;;;;;15.50;98.30;;;;;;5082977;28;19912;-71
2023/10/09 07:03:37;;;;;;;;;;;15.50;98.30;;;;;;5088972;28;20584;-71
2023/10/09 07:06:09;;;;;;;;;;;15.50;98.20;;;;;;5087663;28;19917;-71
2023/10/09 07:08:38;;;;;;;;;;;15.50;98.30;;;;;;5091334;28;19934;-71
2023/10/09 07:11:57;;;;;;;;;;;15.50;98.30;;;;;;5083385;28;19970;-71
2023/10/09 07:14:12;;;;;;;;;;;15.50;98.40;;;;;;5100249;28;20247;-71
2023/10/09 07:16:57;;;;;;;;;;;15.60;98.30;;;;;;5078347;28;19916;-70
2023/10/09 07:20:13;;;;;;;;;;;15.60;98.30;;;;;;5090913;28;19943;-70
2023/10/09 07:24:49;;;;;;;;;;;15.60;98.30;;;;;;5091308;28;19938;-70
2023/10/09 07:38:11;;;;;;;;;;;15.70;98.40;;;;;;5091044;28;19950;-71
2023/10/09 07:41:33;;;;;;;;;;;15.70;98.50;;;;;;5082561;28;19912;-71
2023/10/09 07:43:35;;;;;;;;;;;15.70;98.50;;;;;;5091521;28;19953;-71
2023/10/09 07:48:40;;;;;;;;;;;15.80;98.50;;;;;;5088525;28;19908;-71
2023/10/09 07:51:12;;;;;;;;;;;15.80;98.40;;;;;;5094560;28;19938;-71
2023/10/09 07:53:44;;;;;;;;;;;15.80;98.30;;;;;;5082303;28;19912;-71
2023/10/09 07:56:13;;;;;;;;;;;15.80;98.30;;;;;;5098495;28;19912;-70
2023/10/09 07:58:48;;;;;;;;;;;15.90;98.30;;;;;;5082518;28;20397;-70
2023/10/09 08:01:34;;;;;;;;;;;15.90;98.40;;;;;;5098414;28;20372;-70
2023/10/09 08:04:10;;;;;;;;;;;15.90;98.20;;;;;;5083368;28;19935;-70
2023/10/09 08:06:39;;;;;;;;;;;15.90;98.00;;;;;;5102541;28;19912;-71
2023/10/09 08:12:04;;;;;;;;;;;15.90;98.30;;;;;;5083393;28;20429;-71
2023/10/09 08:24:58;;;;;;;;;;;16.10;98.30;;;;;;5101753;28;19911;-71
2023/10/09 08:32:42;;;;;;;;;;;16.10;98.30;;;;;;5082133;28;19961;-70
2023/10/09 08:35:55;;;;;;;;;;;16.10;98.00;;;;;;5089532;28;19966;-70
2023/10/09 08:37:54;;;;;;;;;;;16.20;98.30;;;;;;5105614;28;19937;-71
2023/10/09 08:40:31;;;;;;;;;;;16.20;98.10;;;;;;5090588;28;20542;-70
2023/10/09 08:42:58;;;;;;;;;;;16.10;98.00;;;;;;5089884;28;19912;-70
2023/10/09 08:45:27;;;;;;;;;;;16.10;97.90;;;;;;5081113;28;19912;-70
2023/10/09 08:47:54;;;;;;;;;;;16.20;98.00;;;;;;5104084;28;19912;-70
2023/10/09 08:50:20;;;;;;;;;;;16.20;98.10;;;;;;5091862;28;19920;-70
2023/10/09 08:52:46;;;;;;;;;;;16.20;98.10;;;;;;5081138;28;19923;-71
2023/10/09 08:55:12;;;;;;;;;;;16.20;98.20;;;;;;5097509;28;19912;-70
2023/10/09 08:57:40;;;;;;;;;;;16.20;98.10;;;;;;5081174;28;19953;-70
2023/10/09 09:00:09;;;;;;;;;;;16.20;98.00;;;;;;5089500;28;19912;-70
2023/10/09 09:02:36;;;;;;;;;;;16.20;98.10;;;;;;5089033;28;19919;-70
2023/10/09 09:05:16;;;;;;;;;;;16.20;98.00;;;;;;5097134;28;19912;-70
2023/10/09 09:07:42;;;;;;;;;;;16.20;98.20;;;;;;5081540;28;19947;-70
2023/10/09 09:10:17;;;;;;;;;;;16.20;98.30;;;;;;5088767;28;19970;-71
2023/10/09 09:12:46;;;;;;;;;;;16.30;98.40;;;;;;5081120;28;19955;-70
2023/10/09 09:15:21;;;;;;;;;;;16.30;98.10;;;;;;5092176;28;19998;-70
2023/10/09 09:17:49;;;;;;;;;;;16.30;98.10;;;;;;5086632;28;19909;-70
2023/10/09 09:20:23;;;;;;;;;;;16.40;98.00;;;;;;5086747;28;19908;-70
2023/10/09 09:22:58;;;;;;;;;;;16.40;98.30;;;;;;5081791;28;19908;-70
2023/10/09 09:25:31;;;;;;;;;;;16.50;98.00;;;;;;5089705;28;19919;-70
2023/10/09 09:27:57;;;;;;;;;;;16.50;97.80;;;;;;5097997;28;19919;-70
2023/10/09 09:30:31;;;;;;;;;;;16.50;97.70;;;;;;5098751;28;19953;-71
2023/10/09 09:33:20;;;;;;;;;;;16.60;98.30;;;;;;5089256;28;19913;-71
2023/10/09 09:35:56;;;;;;;;;;;16.60;97.70;;;;;;5101813;28;20279;-71
2023/10/09 09:38:23;;;;;;;;;;;16.70;98.00;;;;;;5099711;28;19912;-71
2023/10/09 09:40:53;;;;;;;;;;;16.80;97.60;;;;;;5089127;28;19909;-70
2023/10/09 09:43:23;;;;;;;;;;;16.80;97.50;;;;;;5106307;28;19914;-70
2023/10/09 09:45:51;;;;;;;;;;;16.90;97.80;;;;;;5102797;28;19908;-70
2023/10/09 09:48:17;;;;;;;;;;;16.90;97.80;;;;;;5098489;28;19961;-70
2023/10/09 09:50:46;;;;;;;;;;;17.00;98.30;;;;;;5095628;28;19915;-71
2023/10/09 09:53:16;;;;;;;;;;;17.00;97.50;;;;;;5097608;28;19915;-71
2023/10/09 09:55:51;;;;;;;;;;;17.00;97.50;;;;;;5100857;28;19907;-70
2023/10/09 09:58:20;;;;;;;;;;;17.10;97.90;;;;;;5092335;28;20361;-70
2023/10/09 10:00:52;;;;;;;;;;;17.10;97.30;;;;;;5103534;28;19951;-70
2023/10/09 10:03:24;;;;;;;;;;;17.20;97.50;;;;;;5088488;28;19908;-70
2023/10/09 10:05:50;;;;;;;;;;;17.20;97.30;;;;;;5113045;27;20321;-70
2023/10/09 10:08:19;;;;;;;;;;;17.20;97.80;;;;;;5097133;28;19918;-70
2023/10/09 10:10:52;;;;;;;;;;;17.20;97.70;;;;;;5088813;28;19918;-71
2023/10/09 10:13:25;;;;;;;;;;;17.30;97.40;;;;;;5112903;27;19912;-71
2023/10/09 10:18:53;;;;;;;;;;;17.40;97.60;;;;;;5081501;28;19935;-71
2023/10/09 10:21:33;;;;;;;;;;;17.50;97.70;;;;;;5121645;27;20605;-71
2023/10/09 10:24:10;;;;;;;;;;;17.40;98.00;;;;;;5101126;28;19977;-70
2023/10/09 10:26:36;;;;;;;;;;;17.50;97.60;;;;;;5090688;28;19920;-71
2023/10/09 10:29:22;;;;;;;;;;;17.60;97.60;;;;;;5088420;28;20015;-71
2023/10/09 10:32:00;;;;;;;;;;;17.60;97.70;;;;;;5086057;28;19951;-71
2023/10/09 10:34:26;;;;;;;;;;;17.60;97.40;;;;;;5099305;28;19954;-70
2023/10/09 10:37:00;;;;;;;;;;;17.60;97.60;;;;;;5103455;28;20353;-71
2023/10/09 10:39:48;;;;;;;;;;;17.70;97.80;;;;;;5106814;28;20374;-70
2023/10/09 10:42:31;;;;;;;;;;;17.70;97.40;;;;;;5100013;28;20321;-71
2023/10/09 10:44:56;;;;;;;;;;;17.70;97.60;;;;;;5093997;28;19919;-71
2023/10/09 10:47:32;;;;;;;;;;;17.80;97.50;;;;;;5089503;28;19912;-71
2023/10/09 10:49:58;;;;;;;;;;;17.70;97.40;;;;;;5094184;28;20416;-71
2023/10/09 10:52:35;;;;;;;;;;;17.80;97.60;;;;;;5090744;28;20281;-70
2023/10/09 10:58:00;;;;;;;;;;;17.90;97.50;;;;;;5097979;28;20653;-71
2023/10/09 11:03:19;;;;;;;;;;;18.00;97.60;;;;;;5095669;28;19954;-70
2023/10/09 11:05:55;;;;;;;;;;;18.00;97.20;;;;;;5104694;28;19912;-70
2023/10/09 11:08:27;;;;;;;;;;;18.00;97.20;;;;;;5094703;28;19912;-70
2023/10/09 11:10:54;;;;;;;;;;;18.10;97.10;;;;;;5090616;28;20491;-71
2023/10/09 11:13:36;;;;;;;;;;;18.10;97.40;;;;;;5094305;28;19920;-70
2023/10/09 11:16:28;;;;;;;;;;;18.10;97.10;;;;;;5092457;28;19908;-70
2023/10/09 11:18:56;;;;;;;;;;;18.20;97.00;;;;;;5097579;28;20400;-70
2023/10/09 11:21:30;;;;;;;;;;;18.20;97.10;;;;;;5096838;28;20022;-71
2023/10/09 11:23:58;;;;;;;;;;;18.20;97.20;;;;;;5104816;28;19912;-71
2023/10/09 11:26:28;;;;;;;;;;;18.20;97.20;;;;;;5096243;28;19917;-71
2023/10/09 11:29:16;;;;;;;;;;;18.30;97.10;;;;;;5091847;28;19908;-71
2023/10/09 11:32:01;;;;;;;;;;;18.20;97.30;;;;;;5098684;28;19912;-71
2023/10/09 11:34:31;;;;;;;;;;;18.30;97.10;;;;;;5090161;28;19908;-71
2023/10/09 11:36:58;;;;;;;;;;;18.30;97.00;;;;;;5100472;28;19908;-71
2023/10/09 11:39:34;;;;;;;;;;;18.30;97.10;;;;;;5099948;28;19990;-71
2023/10/09 11:42:07;;;;;;;;;;;18.40;96.90;;;;;;5091762;28;19977;-71
2023/10/09 11:44:39;;;;;;;;;;;18.40;97.30;;;;;;5101916;28;19908;-70
2023/10/09 11:52:56;;;;;;;;;;;18.40;97.20;;;;;;5093207;28;19913;-70
2023/10/09 11:55:25;;;;;;;;;;;18.50;97.10;;;;;;5090760;28;19912;-70
2023/10/09 11:57:51;;;;;;;;;;;18.60;97.00;;;;;;5104643;28;19911;-70
2023/10/09 12:00:29;;;;;;;;;;;18.60;97.00;;;;;;5102576;28;19912;-71
2023/10/09 12:02:55;;;;;;;;;;;18.60;96.90;;;;;;5097013;28;19927;-71
2023/10/09 12:05:20;;;;;;;;;;;18.70;96.80;;;;;;5098612;28;20479;-71
2023/10/09 12:07:46;;;;;;;;;;;18.70;96.90;;;;;;5094953;28;20364;-71
2023/10/09 12:10:15;;;;;;;;;;;18.70;97.00;;;;;;5094650;28;19912;-71
2023/10/09 12:12:46;;;;;;;;;;;18.80;97.10;;;;;;5084766;28;19916;-71
2023/10/09 12:15:17;;;;;;;;;;;18.70;96.90;;;;;;5094539;28;19919;-71
2023/10/09 12:17:44;;;;;;;;;;;18.70;97.00;;;;;;5096340;28;19934;-71
2023/10/09 12:20:14;;;;;;;;;;;18.80;97.00;;;;;;5103588;28;19912;-70
2023/10/09 12:22:40;;;;;;;;;;;18.80;96.90;;;;;;5099073;28;19912;-70
2023/10/09 12:25:09;;;;;;;;;;;18.80;96.90;;;;;;5090021;28;19919;-70
2023/10/09 12:27:34;;;;;;;;;;;18.80;96.90;;;;;;5091265;28;19920;-70
2023/10/09 12:30:03;;;;;;;;;;;18.80;96.90;;;;;;5096993;28;19980;-70
2023/10/09 12:32:28;;;;;;;;;;;18.80;96.90;;;;;;5094014;28;19989;-71
2023/10/09 12:34:56;;;;;;;;;;;18.80;96.80;;;;;;5095916;28;19982;-71
2023/10/09 12:37:21;;;;;;;;;;;18.80;96.90;;;;;;5107995;28;20261;-70
2023/10/09 12:39:47;;;;;;;;;;;18.80;96.80;;;;;;5106157;28;19908;-70
2023/10/09 12:42:13;;;;;;;;;;;18.90;96.90;;;;;;5098349;28;20352;-71
2023/10/09 12:44:42;;;;;;;;;;;18.90;97.20;;;;;;5109739;28;19908;-71
2023/10/09 12:47:11;;;;;;;;;;;19.00;97.20;;;;;;5095605;28;20010;-71
2023/10/09 12:49:39;;;;;;;;;;;19.00;96.90;;;;;;5098489;28;20396;-70
2023/10/09 12:52:14;;;;;;;;;;;19.00;96.80;;;;;;5097125;28;20030;-71
2023/10/09 12:54:41;;;;;;;;;;;19.00;96.80;;;;;;5088706;28;20329;-71
2023/10/09 12:57:13;;;;;;;;;;;19.00;96.90;;;;;;5097189;28;19933;-71
2023/10/09 12:59:45;;;;;;;;;;;19.00;96.90;;;;;;5108944;28;19908;-71
2023/10/09 13:02:28;;;;;;;;;;;19.00;96.90;;;;;;5100373;28;19992;-71
2023/10/09 13:04:56;;;;;;;;;;;19.00;96.90;;;;;;5089000;28;19908;-71
2023/10/09 13:07:22;;;;;;;;;;;19.00;96.90;;;;;;5101014;28;19981;-71
2023/10/09 13:10:08;;;;;;;;;;;19.00;96.70;;;;;;5089852;28;19971;-71
2023/10/09 13:12:40;;;;;;;;;;;19.00;96.80;;;;;;5097856;28;20033;-71
2023/10/09 13:15:09;;;;;;;;;;;19.10;96.90;;;;;;5095750;28;19980;-71
2023/10/09 13:17:38;;;;;;;;;;;19.10;96.80;;;;;;5089860;28;19912;-71
2023/10/09 13:20:12;;;;;;;;;;;19.10;97.00;;;;;;5086890;28;19914;-71
2023/10/09 13:22:41;;;;;;;;;;;19.10;96.90;;;;;;5113126;27;20625;-71
2023/10/09 13:25:14;;;;;;;;;;;19.10;96.90;;;;;;5088643;28;19912;-71
2023/10/09 13:27:40;;;;;;;;;;;19.10;96.80;;;;;;5079073;28;20086;-71
2023/10/09 13:30:07;;;;;;;;;;;19.10;96.80;;;;;;5090950;28;20658;-71
2023/10/09 13:32:35;;;;;;;;;;;19.20;96.80;;;;;;5100352;28;20018;-71
2023/10/09 13:35:02;;;;;;;;;;;19.20;96.80;;;;;;5086848;28;19919;-71
2023/10/09 13:37:30;;;;;;;;;;;19.30;96.70;;;;;;5088676;28;19947;-71
2023/10/09 13:39:57;;;;;;;;;;;19.30;96.70;;;;;;5083230;28;20292;-71
2023/10/09 13:42:25;;;;;;;;;;;19.40;96.50;;;;;;5085081;28;19941;-71
2023/10/09 13:44:53;;;;;;;;;;;19.50;96.50;;;;;;5081478;28;19919;-71
2023/10/09 13:47:20;;;;;;;;;;;19.40;96.60;;;;;;5078291;28;20007;-71
2023/10/09 13:49:53;;;;;;;;;;;19.50;96.50;;;;;;5081287;28;19919;-71
2023/10/09 13:52:18;;;;;;;;;;;19.50;96.50;;;;;;5088922;28;19915;-72
2023/10/09 13:54:48;;;;;;;;;;;19.50;96.50;;;;;;5089446;28;20238;-71
2023/10/09 13:57:14;;;;;;;;;;;19.50;96.50;;;;;;5087533;28;19955;-71
2023/10/09 13:59:43;;;;;;;;;;;19.50;96.50;;;;;;5078374;28;20455;-71
2023/10/09 14:02:09;;;;;;;;;;;19.50;96.50;;;;;;5088292;28;20439;-71
2023/10/09 14:04:35;;;;;;;;;;;19.60;96.50;;;;;;5086502;28;20026;-71
2023/10/09 14:07:01;;;;;;;;;;;19.50;96.50;;;;;;5081107;28;19969;-71
2023/10/09 14:09:54;;;;;;;;;;;19.50;96.40;;;;;;5111836;27;19912;-70
2023/10/09 14:12:21;;;;;;;;;;;19.50;96.50;;;;;;5089665;28;19977;-71
2023/10/09 14:14:47;;;;;;;;;;;19.50;96.50;;;;;;5084154;28;19912;-71
2023/10/09 14:17:13;;;;;;;;;;;19.50;96.50;;;;;;5084043;28;20474;-71
2023/10/09 14:19:41;;;;;;;;;;;19.50;96.50;;;;;;5088215;28;19908;-72
2023/10/09 14:22:07;;;;;;;;;;;19.50;96.40;;;;;;5088602;28;19919;-71
2023/10/09 14:24:34;;;;;;;;;;;19.50;96.40;;;;;;5081969;28;20454;-71
2023/10/09 14:27:04;;;;;;;;;;;19.50;96.50;;;;;;5088154;28;19948;-71
2023/10/09 14:29:31;;;;;;;;;;;19.50;96.50;;;;;;5092849;28;19918;-71
2023/10/09 14:32:02;;;;;;;;;;;19.40;96.50;;;;;;5083742;28;19917;-71
2023/10/09 14:34:32;;;;;;;;;;;19.40;96.60;;;;;;5090310;28;19912;-71
2023/10/09 14:37:00;;;;;;;;;;;19.40;96.60;;;;;;5092432;28;19908;-71
2023/10/09 14:39:26;;;;;;;;;;;19.40;96.60;;;;;;5084339;28;19912;-71
2023/10/09 14:41:54;;;;;;;;;;;19.40;96.70;;;;;;5092012;28;19908;-71
2023/10/09 14:44:20;;;;;;;;;;;19.40;96.70;;;;;;5082260;28;19919;-71
2023/10/09 14:46:45;;;;;;;;;;;19.40;96.70;;;;;;5092057;28;19918;-71
2023/10/09 14:49:14;;;;;;;;;;;19.30;96.70;;;;;;5084136;28;20019;-71
2023/10/09 14:51:39;;;;;;;;;;;19.40;96.80;;;;;;5098328;28;19911;-71
2023/10/09 14:54:07;;;;;;;;;;;19.30;96.80;;;;;;5097517;28;19912;-71
2023/10/09 14:56:36;;;;;;;;;;;19.30;96.80;;;;;;5091911;28;20471;-71
2023/10/09 14:59:02;;;;;;;;;;;19.30;96.80;;;;;;5092262;28;20360;-71
2023/10/09 15:01:29;;;;;;;;;;;19.30;96.80;;;;;;5093413;28;19916;-71
2023/10/09 15:03:57;;;;;;;;;;;19.30;97.00;;;;;;5097779;28;19912;-71
2023/10/09 15:06:24;;;;;;;;;;;19.30;96.90;;;;;;5081623;28;20551;-71
2023/10/09 15:08:49;;;;;;;;;;;19.20;96.90;;;;;;5090781;28;19908;-71
2023/10/09 15:11:15;;;;;;;;;;;19.20;97.10;;;;;;5098915;28;19912;-71
2023/10/09 15:13:40;;;;;;;;;;;19.20;96.90;;;;;;5098052;28;19938;-71
2023/10/09 15:16:06;;;;;;;;;;;19.20;97.00;;;;;;5088818;28;20011;-71
2023/10/09 15:18:37;;;;;;;;;;;19.20;97.00;;;;;;5092053;28;19923;-71
2023/10/09 15:21:02;;;;;;;;;;;19.20;97.00;;;;;;5091804;28;20392;-71
2023/10/09 15:23:28;;;;;;;;;;;19.20;97.00;;;;;;5091355;28;20007;-71
2023/10/09 15:25:54;;;;;;;;;;;19.20;97.10;;;;;;5090665;28;19916;-72
2023/10/09 15:28:19;;;;;;;;;;;19.20;97.10;;;;;;5090385;28;20353;-71
2023/10/09 15:30:47;;;;;;;;;;;19.10;97.10;;;;;;5086802;28;19912;-72
2023/10/09 15:33:19;;;;;;;;;;;19.10;97.20;;;;;;5091302;28;19912;-71
2023/10/09 15:35:54;;;;;;;;;;;19.10;97.20;;;;;;5082474;28;20509;-71
2023/10/09 15:38:20;;;;;;;;;;;19.10;97.10;;;;;;5091324;28;20368;-71
2023/10/09 15:40:47;;;;;;;;;;;19.10;97.20;;;;;;5100162;28;19912;-71
2023/10/09 15:43:13;;;;;;;;;;;19.10;97.20;;;;;;5095055;28;20397;-71
2023/10/09 15:45:42;;;;;;;;;;;19.10;97.40;;;;;;5089292;28;20057;-71
2023/10/09 15:48:08;;;;;;;;;;;19.10;97.40;;;;;;5090790;28;19912;-71
2023/10/09 15:50:34;;;;;;;;;;;19.00;97.30;;;;;;5091646;28;19947;-71
2023/10/09 15:53:01;;;;;;;;;;;19.00;97.40;;;;;;5092092;28;20410;-71
2023/10/09 15:55:26;;;;;;;;;;;19.00;97.40;;;;;;5089964;28;19908;-71
2023/10/09 15:57:52;;;;;;;;;;;19.00;97.40;;;;;;5092112;28;19908;-71
2023/10/09 16:00:18;;;;;;;;;;;19.00;97.30;;;;;;5090651;28;19912;-71
2023/10/09 16:02:45;;;;;;;;;;;19.00;97.40;;;;;;5090515;28;19977;-71
2023/10/09 16:05:11;;;;;;;;;;;19.00;97.40;;;;;;5091484;28;19912;-71
2023/10/09 16:07:38;;;;;;;;;;;19.00;97.40;;;;;;5091599;28;19908;-71
2023/10/09 16:10:08;;;;;;;;;;;18.90;97.50;;;;;;5090252;28;19970;-71
2023/10/09 16:12:34;;;;;;;;;;;18.90;97.50;;;;;;5091414;28;19912;-71
2023/10/09 16:15:00;;;;;;;;;;;18.90;97.60;;;;;;5091495;28;20432;-71
2023/10/09 16:17:26;;;;;;;;;;;18.90;97.50;;;;;;5100904;28;19919;-71
2023/10/09 16:19:51;;;;;;;;;;;18.90;97.50;;;;;;5091768;28;20368;-71
2023/10/09 16:22:17;;;;;;;;;;;18.90;97.50;;;;;;5091548;28;19909;-72
2023/10/09 16:24:44;;;;;;;;;;;18.90;97.50;;;;;;5091048;28;19912;-71
2023/10/09 16:27:10;;;;;;;;;;;18.80;97.40;;;;;;5089878;28;19920;-71
2023/10/09 16:29:36;;;;;;;;;;;18.80;97.40;;;;;;5091248;28;19912;-71
2023/10/09 16:32:01;;;;;;;;;;;18.80;97.60;;;;;;5089715;28;20361;-71
2023/10/09 16:34:29;;;;;;;;;;;18.80;97.60;;;;;;5090630;28;19912;-71
2023/10/09 16:36:54;;;;;;;;;;;18.80;97.70;;;;;;5089989;28;19908;-71
2023/10/09 16:39:22;;;;;;;;;;;18.80;97.70;;;;;;5099348;28;19919;-72
2023/10/09 16:41:48;;;;;;;;;;;18.80;97.60;;;;;;5091074;28;19928;-71
2023/10/09 16:44:17;;;;;;;;;;;18.70;97.60;;;;;;5091003;28;19923;-71